Time;durP1;ratioP1;P1;durP2;ratioP2;P2;SDS_P1;SDS_P2;PMS_P1;PMS_P2;Temp;Humidity;BMP_temperature;BMP_pressure;BME280_temperature;BME280_humidity;BME280_pressure;Samples;Min_cycle;Max_cycle;Signal;HPM_P1;HPM_P2
2023/03/22 00:01:07;;;;;;;27.17;9.63;;;;;;;;;;4944750;28;20055;-65
2023/03/22 00:03:34;;;;;;;22.85;9.45;;;;;;;;;;4925016;28;20052;-65
2023/03/22 00:06:00;;;;;;;21.23;9.98;;;;;;;;;;4940587;28;20125;-65
2023/03/22 00:08:26;;;;;;;21.63;7.65;;;;;;;;;;4942811;28;20035;-65
2023/03/22 00:10:52;;;;;;;23.13;8.48;;;;;;;;;;4944009;28;20039;-64
2023/03/22 00:13:19;;;;;;;20.60;8.93;;;;;;;;;;4944759;28;20446;-64
2023/03/22 00:15:47;;;;;;;23.40;8.55;;;;;;;;;;4943658;28;20579;-65
2023/03/22 00:18:15;;;;;;;25.02;9.02;;;;;;;;;;4946259;28;20075;-64
2023/03/22 00:20:48;;;;;;;18.33;8.32;;;;;;;;;;4944560;28;20043;-64
2023/03/22 00:23:14;;;;;;;17.95;7.30;;;;;;;;;;4939904;28;20502;-65
2023/03/22 00:25:41;;;;;;;26.92;9.05;;;;;;;;;;4925904;28;20056;-65
2023/03/22 00:28:07;;;;;;;20.52;8.25;;;;;;;;;;4940151;28;20095;-65
2023/03/22 00:30:33;;;;;;;17.38;6.78;;;;;;;;;;4943190;28;20051;-65
2023/03/22 00:32:59;;;;;;;17.30;7.25;;;;;;;;;;4928159;28;20059;-65
2023/03/22 00:35:25;;;;;;;22.17;6.70;;;;;;;;;;4943827;28;20086;-64
2023/03/22 00:37:51;;;;;;;17.13;6.40;;;;;;;;;;4923373;28;20479;-64
2023/03/22 00:40:18;;;;;;;16.38;6.38;;;;;;;;;;4937763;28;20051;-65
2023/03/22 00:42:44;;;;;;;17.65;6.78;;;;;;;;;;4939420;28;20549;-65
2023/03/22 00:45:11;;;;;;;15.20;5.45;;;;;;;;;;4923111;28;20047;-65
2023/03/22 00:47:37;;;;;;;16.58;5.55;;;;;;;;;;4939488;28;20061;-64
2023/03/22 00:50:04;;;;;;;19.27;5.53;;;;;;;;;;4942431;28;20041;-65
2023/03/22 00:52:30;;;;;;;17.50;5.28;;;;;;;;;;4926425;28;20457;-65
2023/03/22 00:54:57;;;;;;;19.55;4.65;;;;;;;;;;4929079;28;20053;-65
2023/03/22 00:57:23;;;;;;;17.80;4.75;;;;;;;;;;4941664;28;20055;-65
2023/03/22 00:59:49;;;;;;;13.02;4.68;;;;;;;;;;4924909;28;20051;-65
2023/03/22 01:02:16;;;;;;;16.90;4.45;;;;;;;;;;4940859;28;20494;-64
2023/03/22 01:04:45;;;;;;;15.27;4.28;;;;;;;;;;4940456;28;20081;-64
2023/03/22 01:07:16;;;;;;;17.05;4.13;;;;;;;;;;4922360;28;20038;-65
2023/03/22 01:09:43;;;;;;;17.35;3.55;;;;;;;;;;4944102;28;20446;-64
2023/03/22 01:12:09;;;;;;;11.50;2.95;;;;;;;;;;4945831;28;20074;-64
2023/03/22 01:14:35;;;;;;;19.40;4.32;;;;;;;;;;4947112;28;20043;-65
2023/03/22 01:17:01;;;;;;;18.13;3.20;;;;;;;;;;4925040;29;20054;-64
2023/03/22 01:19:28;;;;;;;11.80;3.10;;;;;;;;;;4941439;28;20035;-64
2023/03/22 01:21:54;;;;;;;10.38;3.05;;;;;;;;;;4939024;28;20043;-65
2023/03/22 01:24:20;;;;;;;11.45;2.55;;;;;;;;;;4939743;28;20042;-65
2023/03/22 01:26:47;;;;;;;16.02;3.40;;;;;;;;;;4921592;28;20047;-65
2023/03/22 01:29:13;;;;;;;14.32;2.50;;;;;;;;;;4942688;28;20105;-65
2023/03/22 01:31:39;;;;;;;11.63;2.75;;;;;;;;;;4954316;28;20091;-65
2023/03/22 01:34:05;;;;;;;15.73;3.95;;;;;;;;;;4954942;28;20433;-65
2023/03/22 01:36:31;;;;;;;11.25;2.95;;;;;;;;;;4954135;28;20043;-65
2023/03/22 01:38:58;;;;;;;20.88;2.83;;;;;;;;;;4957517;28;20046;-65
2023/03/22 01:41:24;;;;;;;13.85;3.00;;;;;;;;;;4958168;28;20059;-65
2023/03/22 01:44:09;;;;;;;14.25;3.67;;;;;;;;;;4955187;28;20107;-65
2023/03/22 01:46:35;;;;;;;21.75;3.10;;;;;;;;;;4955094;28;20509;-65
2023/03/22 01:49:03;;;;;;;12.75;2.83;;;;;;;;;;4958922;28;20121;-65
2023/03/22 01:51:30;;;;;;;16.75;2.92;;;;;;;;;;4955784;28;20105;-65
2023/03/22 01:53:58;;;;;;;21.45;3.83;;;;;;;;;;4956071;28;20755;-65
2023/03/22 01:56:26;;;;;;;13.02;2.90;;;;;;;;;;4955641;28;20039;-65
2023/03/22 01:58:53;;;;;;;16.05;3.55;;;;;;;;;;4957325;28;20055;-65
2023/03/22 02:01:20;;;;;;;17.52;4.95;;;;;;;;;;4938201;28;20046;-65
2023/03/22 02:03:55;;;;;;;17.92;3.20;;;;;;;;;;4955305;28;20073;-65
2023/03/22 02:06:21;;;;;;;21.58;4.07;;;;;;;;;;4956834;28;20181;-65
2023/03/22 02:08:51;;;;;;;14.50;2.90;;;;;;;;;;4956538;28;20051;-65
2023/03/22 02:11:20;;;;;;;17.40;3.10;;;;;;;;;;4956152;28;20047;-66
2023/03/22 02:13:54;;;;;;;12.63;3.10;;;;;;;;;;4956836;28;20362;-69
2023/03/22 02:16:32;;;;;;;14.07;2.95;;;;;;;;;;4954808;28;20042;-66
2023/03/22 02:19:07;;;;;;;11.63;2.90;;;;;;;;;;4956440;28;20121;-66
2023/03/22 02:21:40;;;;;;;9.95;2.75;;;;;;;;;;4955758;28;20116;-66
2023/03/22 02:24:13;;;;;;;12.13;3.00;;;;;;;;;;4956228;28;20050;-65
2023/03/22 02:26:45;;;;;;;14.75;3.25;;;;;;;;;;4951864;28;20213;-66
2023/03/22 02:29:25;;;;;;;12.45;2.20;;;;;;;;;;4955611;28;20093;-65
2023/03/22 02:32:01;;;;;;;11.05;2.40;;;;;;;;;;4958485;28;20197;-65
2023/03/22 02:34:30;;;;;;;14.00;2.47;;;;;;;;;;4939533;28;20105;-65
2023/03/22 02:36:57;;;;;;;11.35;3.05;;;;;;;;;;4958340;28;20048;-66
2023/03/22 02:39:27;;;;;;;13.68;2.08;;;;;;;;;;4939936;28;20042;-65
2023/03/22 02:42:15;;;;;;;15.55;2.70;;;;;;;;;;4940233;28;20490;-66
2023/03/22 02:44:41;;;;;;;11.90;2.45;;;;;;;;;;4958622;28;20120;-66
2023/03/22 02:47:27;;;;;;;15.13;2.42;;;;;;;;;;4957947;28;20051;-65
2023/03/22 02:49:56;;;;;;;13.98;2.45;;;;;;;;;;4938649;28;20491;-65
2023/03/22 02:52:26;;;;;;;15.73;2.22;;;;;;;;;;4957445;28;21056;-66
2023/03/22 02:54:58;;;;;;;13.48;2.40;;;;;;;;;;4959635;28;20051;-65
2023/03/22 02:57:28;;;;;;;13.88;2.60;;;;;;;;;;4942844;28;20182;-65
2023/03/22 02:59:55;;;;;;;15.52;3.25;;;;;;;;;;4961460;28;20043;-65
2023/03/22 03:02:21;;;;;;;24.90;4.55;;;;;;;;;;4959293;28;20556;-65
2023/03/22 03:04:49;;;;;;;17.85;3.10;;;;;;;;;;4958619;28;20042;-65
2023/03/22 03:07:17;;;;;;;13.05;2.75;;;;;;;;;;4961387;28;20483;-65
2023/03/22 03:09:44;;;;;;;14.85;3.03;;;;;;;;;;4943056;28;20054;-66
2023/03/22 03:12:18;;;;;;;18.52;2.35;;;;;;;;;;4959358;28;20477;-65
2023/03/22 03:14:44;;;;;;;16.88;3.38;;;;;;;;;;4958559;28;20046;-66
2023/03/22 03:17:28;;;;;;;23.60;4.50;;;;;;;;;;4960284;28;20050;-66
2023/03/22 03:19:54;;;;;;;;;;;;;;;;;;4957103;28;20054;-65
2023/03/22 03:22:34;;;;;;;27.63;3.20;;;;;;;;;;4960044;28;19996;-65
2023/03/22 03:25:06;;;;;;;16.48;2.47;;;;;;;;;;4958070;28;20089;-66
2023/03/22 03:27:36;;;;;;;21.85;3.33;;;;;;;;;;4959064;28;20589;-65
2023/03/22 03:30:11;;;;;;;15.32;2.90;;;;;;;;;;4942629;28;20050;-66
2023/03/22 03:32:42;;;;;;;14.95;2.65;;;;;;;;;;4959886;28;20664;-66
2023/03/22 03:35:21;;;;;;;18.45;3.53;;;;;;;;;;4955504;28;20264;-65
2023/03/22 03:37:49;;;;;;;22.20;4.50;;;;;;;;;;4958023;28;20055;-65
2023/03/22 03:40:19;;;;;;;17.90;3.60;;;;;;;;;;4962029;28;20047;-65
2023/03/22 03:42:50;;;;;;;14.95;2.30;;;;;;;;;;4962742;28;20150;-65
2023/03/22 03:45:17;;;;;;;19.70;3.13;;;;;;;;;;4960625;28;20049;-66
2023/03/22 03:47:45;;;;;;;16.90;3.13;;;;;;;;;;4957178;28;20067;-65
2023/03/22 03:50:12;;;;;;;18.92;3.00;;;;;;;;;;4959561;28;20051;-65
2023/03/22 03:52:38;;;;;;;16.83;3.30;;;;;;;;;;4957592;28;20405;-66
2023/03/22 03:55:05;;;;;;;23.73;2.90;;;;;;;;;;4957160;28;20063;-66
2023/03/22 03:57:31;;;;;;;19.23;3.45;;;;;;;;;;4943507;28;20059;-66
2023/03/22 03:59:57;;;;;;;13.95;2.88;;;;;;;;;;4958242;28;20450;-66
2023/03/22 04:02:23;;;;;;;11.98;2.85;;;;;;;;;;4956689;28;20386;-67
2023/03/22 04:04:49;;;;;;;20.13;2.70;;;;;;;;;;4957832;28;20325;-66
2023/03/22 04:07:15;;;;;;;19.13;3.00;;;;;;;;;;4956293;28;20099;-65
2023/03/22 04:09:41;;;;;;;12.82;3.35;;;;;;;;;;4956258;28;20096;-65
2023/03/22 04:12:09;;;;;;;17.08;2.85;;;;;;;;;;4955254;28;20133;-65
2023/03/22 04:14:35;;;;;;;13.15;3.45;;;;;;;;;;4959986;28;20078;-65
2023/03/22 04:17:01;;;;;;;18.38;3.88;;;;;;;;;;4955711;28;20042;-65
2023/03/22 04:19:27;;;;;;;13.65;3.42;;;;;;;;;;4956982;28;20050;-65
2023/03/22 04:21:53;;;;;;;16.20;3.22;;;;;;;;;;4961905;28;20121;-65
2023/03/22 04:24:20;;;;;;;19.95;3.40;;;;;;;;;;4958798;28;20105;-65
2023/03/22 04:26:47;;;;;;;13.15;3.00;;;;;;;;;;4958717;28;20082;-66
2023/03/22 04:29:13;;;;;;;12.95;3.92;;;;;;;;;;4957413;28;20443;-65
2023/03/22 04:31:39;;;;;;;17.70;3.10;;;;;;;;;;4957765;28;20065;-66
2023/03/22 04:34:06;;;;;;;22.05;4.15;;;;;;;;;;4937853;28;20074;-65
2023/03/22 04:36:35;;;;;;;10.10;3.70;;;;;;;;;;4959438;28;20133;-65
2023/03/22 04:39:04;;;;;;;15.13;4.45;;;;;;;;;;4958910;28;20055;-65
2023/03/22 04:41:31;;;;;;;16.20;4.35;;;;;;;;;;4940579;28;20105;-65
2023/03/22 04:44:02;;;;;;;17.75;4.53;;;;;;;;;;4956070;28;20082;-65
2023/03/22 04:46:30;;;;;;;13.70;3.65;;;;;;;;;;4958323;28;20805;-64
2023/03/22 04:48:56;;;;;;;16.58;4.88;;;;;;;;;;4943167;28;20042;-65
2023/03/22 04:51:22;;;;;;;16.67;4.80;;;;;;;;;;4956880;28;20058;-65
2023/03/22 04:53:48;;;;;;;15.60;5.22;;;;;;;;;;4958767;28;20054;-65
2023/03/22 04:56:15;;;;;;;19.73;5.13;;;;;;;;;;4943510;28;20086;-65
2023/03/22 04:58:41;;;;;;;18.42;5.85;;;;;;;;;;4956469;28;20094;-65
2023/03/22 05:01:09;;;;;;;19.48;6.10;;;;;;;;;;4955984;28;20039;-65
2023/03/22 05:03:36;;;;;;;15.75;5.05;;;;;;;;;;4940185;28;20046;-65
2023/03/22 05:06:02;;;;;;;16.13;5.50;;;;;;;;;;4939918;28;20043;-65
2023/03/22 05:08:29;;;;;;;13.95;5.57;;;;;;;;;;4940791;28;20055;-65
2023/03/22 05:10:57;;;;;;;18.88;5.13;;;;;;;;;;4941844;28;20148;-65
2023/03/22 05:13:24;;;;;;;16.75;6.43;;;;;;;;;;4955523;28;20483;-65
2023/03/22 05:15:50;;;;;;;16.25;5.30;;;;;;;;;;4956143;28;20042;-65
2023/03/22 05:18:19;;;;;;;16.38;5.97;;;;;;;;;;4938541;28;20047;-65
2023/03/22 05:20:45;;;;;;;21.30;7.35;;;;;;;;;;4955215;28;20068;-65
2023/03/22 05:23:12;;;;;;;16.92;5.97;;;;;;;;;;4956350;28;20081;-65
2023/03/22 05:25:38;;;;;;;20.85;6.85;;;;;;;;;;4936081;28;20053;-65
2023/03/22 05:28:05;;;;;;;16.45;6.85;;;;;;;;;;4957000;28;20058;-65
2023/03/22 05:30:31;;;;;;;15.65;6.90;;;;;;;;;;4942571;28;20154;-65
2023/03/22 05:32:59;;;;;;;14.02;7.03;;;;;;;;;;4955362;28;20065;-65
2023/03/22 05:35:26;;;;;;;19.58;7.68;;;;;;;;;;4959184;28;20069;-65
2023/03/22 05:37:52;;;;;;;17.50;8.55;;;;;;;;;;4955670;28;20134;-65
2023/03/22 05:40:18;;;;;;;19.20;7.53;;;;;;;;;;4955718;28;20043;-65
2023/03/22 05:42:45;;;;;;;19.77;9.00;;;;;;;;;;4956101;28;20050;-65
2023/03/22 05:45:11;;;;;;;19.10;7.38;;;;;;;;;;4957065;28;20109;-65
2023/03/22 05:47:38;;;;;;;17.20;8.48;;;;;;;;;;4954554;28;20038;-65
2023/03/22 05:50:05;;;;;;;15.55;8.07;;;;;;;;;;4953793;28;20060;-65
2023/03/22 05:52:31;;;;;;;15.27;7.68;;;;;;;;;;4957042;28;20059;-65
2023/03/22 05:54:58;;;;;;;20.95;8.23;;;;;;;;;;4959628;28;20057;-65
2023/03/22 05:57:25;;;;;;;19.20;8.75;;;;;;;;;;4961849;28;20047;-65
2023/03/22 05:59:52;;;;;;;18.80;8.32;;;;;;;;;;4960560;28;20141;-65
2023/03/22 06:02:20;;;;;;;17.30;9.27;;;;;;;;;;4959476;28;20463;-66
2023/03/22 06:04:46;;;;;;;20.42;8.60;;;;;;;;;;4959949;28;20051;-66
2023/03/22 06:07:12;;;;;;;25.17;9.68;;;;;;;;;;4962995;28;20061;-66
2023/03/22 06:09:39;;;;;;;23.88;9.23;;;;;;;;;;4962851;28;20094;-66
2023/03/22 06:12:05;;;;;;;22.42;9.82;;;;;;;;;;4964434;28;20066;-66
2023/03/22 06:14:31;;;;;;;20.50;9.73;;;;;;;;;;4963143;28;20043;-66
2023/03/22 06:16:57;;;;;;;24.70;10.25;;;;;;;;;;4960184;28;20062;-65
2023/03/22 06:19:24;;;;;;;17.05;9.13;;;;;;;;;;4959531;28;20134;-66
2023/03/22 06:21:51;;;;;;;20.52;10.27;;;;;;;;;;4957246;28;20055;-66
2023/03/22 06:24:18;;;;;;;24.10;10.05;;;;;;;;;;4956694;28;20043;-66
2023/03/22 06:26:44;;;;;;;24.45;10.23;;;;;;;;;;4960829;28;20141;-66
2023/03/22 06:29:11;;;;;;;22.70;10.70;;;;;;;;;;4964774;28;20054;-66
2023/03/22 06:31:37;;;;;;;25.10;10.35;;;;;;;;;;4961850;28;20057;-66
2023/03/22 06:34:04;;;;;;;18.85;10.40;;;;;;;;;;4965546;28;20640;-65
2023/03/22 06:36:30;;;;;;;23.65;11.90;;;;;;;;;;4946842;28;20760;-65
2023/03/22 06:38:57;;;;;;;26.85;12.95;;;;;;;;;;4964255;28;20046;-65
2023/03/22 06:41:24;;;;;;;23.08;11.32;;;;;;;;;;4963972;28;20464;-65
2023/03/22 06:43:50;;;;;;;24.92;11.48;;;;;;;;;;4965222;28;20046;-65
2023/03/22 06:46:16;;;;;;;24.08;11.50;;;;;;;;;;4948073;28;20054;-66
2023/03/22 06:48:43;;;;;;;20.63;11.68;;;;;;;;;;4946521;28;20062;-65
2023/03/22 06:51:09;;;;;;;24.88;11.85;;;;;;;;;;4942966;28;20134;-65
2023/03/22 06:53:35;;;;;;;25.55;12.30;;;;;;;;;;4946246;28;20133;-65
2023/03/22 06:56:01;;;;;;;22.88;11.55;;;;;;;;;;4965495;28;20130;-65
2023/03/22 06:58:27;;;;;;;23.27;11.77;;;;;;;;;;4925367;28;20102;-66
2023/03/22 07:00:55;;;;;;;22.00;11.52;;;;;;;;;;4931755;28;20105;-65
2023/03/22 07:03:21;;;;;;;22.67;11.68;;;;;;;;;;4961629;28;20051;-65
2023/03/22 07:05:48;;;;;;;21.85;11.43;;;;;;;;;;4964050;28;20047;-65
2023/03/22 07:08:14;;;;;;;26.88;11.82;;;;;;;;;;4963972;28;20442;-65
2023/03/22 07:10:42;;;;;;;19.00;11.02;;;;;;;;;;4962873;28;20047;-65
2023/03/22 07:13:09;;;;;;;32.95;12.85;;;;;;;;;;4945618;28;20059;-65
2023/03/22 07:15:35;;;;;;;26.00;11.45;;;;;;;;;;4964446;28;20047;-65
2023/03/22 07:18:01;;;;;;;21.25;9.82;;;;;;;;;;4962699;28;20069;-65
2023/03/22 07:20:28;;;;;;;21.80;10.38;;;;;;;;;;4962160;28;20042;-65
2023/03/22 07:22:54;;;;;;;18.73;10.07;;;;;;;;;;4964490;28;20046;-65
2023/03/22 07:25:20;;;;;;;18.38;9.30;;;;;;;;;;4967240;28;20054;-65
2023/03/22 07:27:46;;;;;;;17.67;9.80;;;;;;;;;;4967544;28;20055;-65
2023/03/22 07:30:13;;;;;;;17.83;7.40;;;;;;;;;;4953097;28;20133;-65
2023/03/22 07:32:40;;;;;;;26.67;8.57;;;;;;;;;;4966416;28;20054;-65
2023/03/22 07:35:06;;;;;;;16.00;7.93;;;;;;;;;;4965684;28;20049;-65
2023/03/22 07:37:32;;;;;;;17.90;8.38;;;;;;;;;;4965688;28;20066;-65
2023/03/22 07:39:58;;;;;;;18.42;8.73;;;;;;;;;;4964188;28;20043;-65
2023/03/22 07:42:25;;;;;;;17.10;6.97;;;;;;;;;;4964247;28;20042;-65
2023/03/22 07:44:51;;;;;;;16.80;7.75;;;;;;;;;;4966260;28;20043;-65
2023/03/22 07:47:17;;;;;;;13.65;6.28;;;;;;;;;;4963884;28;20482;-65
2023/03/22 07:49:44;;;;;;;25.17;6.93;;;;;;;;;;4967526;28;20109;-69
2023/03/22 07:52:10;;;;;;;14.35;6.03;;;;;;;;;;4966499;28;20054;-64
2023/03/22 07:54:36;;;;;;;12.32;5.50;;;;;;;;;;4963957;28;20034;-64
2023/03/22 07:57:02;;;;;;;21.27;6.53;;;;;;;;;;4966788;28;20047;-64
2023/03/22 07:59:30;;;;;;;20.17;6.43;;;;;;;;;;4966162;28;20138;-65
2023/03/22 08:01:56;;;;;;;19.65;5.95;;;;;;;;;;4967677;28;20065;-64
2023/03/22 08:04:22;;;;;;;18.85;5.85;;;;;;;;;;4966027;28;20047;-65
2023/03/22 08:06:48;;;;;;;11.27;5.18;;;;;;;;;;4965935;28;20097;-65
2023/03/22 08:09:14;;;;;;;17.13;5.55;;;;;;;;;;4966450;28;20070;-65
2023/03/22 08:11:40;;;;;;;13.77;6.18;;;;;;;;;;4966362;28;20063;-65
2023/03/22 08:14:07;;;;;;;13.63;5.75;;;;;;;;;;4966080;28;20082;-65
2023/03/22 08:16:34;;;;;;;19.73;4.93;;;;;;;;;;4967660;28;20069;-65
2023/03/22 08:19:00;;;;;;;14.02;5.18;;;;;;;;;;4964815;28;20047;-65
2023/03/22 08:21:26;;;;;;;15.23;5.32;;;;;;;;;;4959344;28;20090;-64
2023/03/22 08:23:53;;;;;;;14.50;5.43;;;;;;;;;;4960840;28;20412;-67
2023/03/22 08:26:19;;;;;;;18.42;5.53;;;;;;;;;;4965213;28;20565;-65
2023/03/22 08:28:45;;;;;;;21.60;6.25;;;;;;;;;;4965411;28;20085;-65
2023/03/22 08:31:14;;;;;;;24.52;7.40;;;;;;;;;;4967120;28;20047;-65
2023/03/22 08:33:40;;;;;;;17.63;5.18;;;;;;;;;;4966154;28;20054;-65
2023/03/22 08:36:09;;;;;;;20.45;5.80;;;;;;;;;;4966042;28;20483;-65
2023/03/22 08:38:35;;;;;;;19.52;5.65;;;;;;;;;;4965489;28;20119;-65
2023/03/22 08:41:02;;;;;;;15.63;5.03;;;;;;;;;;4964597;28;20062;-65
2023/03/22 08:43:28;;;;;;;13.38;5.13;;;;;;;;;;4948575;28;20134;-65
2023/03/22 08:45:54;;;;;;;18.55;6.15;;;;;;;;;;4966317;28;20079;-66
2023/03/22 08:48:20;;;;;;;20.38;5.30;;;;;;;;;;4950358;28;20536;-66
2023/03/22 08:50:46;;;;;;;15.82;5.53;;;;;;;;;;4947975;28;20145;-66
2023/03/22 08:53:13;;;;;;;18.42;6.38;;;;;;;;;;4968018;28;20054;-66
2023/03/22 08:55:43;;;;;;;16.85;5.85;;;;;;;;;;4948171;28;20158;-66
2023/03/22 08:58:10;;;;;;;19.58;6.82;;;;;;;;;;4963981;28;20172;-66
2023/03/22 09:00:37;;;;;;;19.70;6.20;;;;;;;;;;4964972;28;20501;-65
2023/03/22 09:03:04;;;;;;;16.90;5.50;;;;;;;;;;4948898;28;20421;-66
2023/03/22 09:05:30;;;;;;;24.55;5.20;;;;;;;;;;4967418;28;20043;-66
2023/03/22 09:07:56;;;;;;;16.10;4.80;;;;;;;;;;4965970;28;20520;-66
2023/03/22 09:10:22;;;;;;;18.77;5.05;;;;;;;;;;4965653;28;20070;-66
2023/03/22 09:12:49;;;;;;;18.52;5.68;;;;;;;;;;4949814;28;20059;-66
2023/03/22 09:15:15;;;;;;;17.48;4.95;;;;;;;;;;4964106;28;20563;-66
2023/03/22 09:17:41;;;;;;;21.20;5.32;;;;;;;;;;4963475;28;20399;-66
2023/03/22 09:20:07;;;;;;;15.80;5.30;;;;;;;;;;4966792;28;20062;-66
2023/03/22 09:22:33;;;;;;;18.15;4.97;;;;;;;;;;4964928;28;20047;-66
2023/03/22 09:25:00;;;;;;;13.15;5.05;;;;;;;;;;4964274;28;20383;-66
2023/03/22 09:27:26;;;;;;;17.60;5.43;;;;;;;;;;4967331;28;20042;-66
2023/03/22 09:29:52;;;;;;;19.60;5.35;;;;;;;;;;4927806;29;20047;-66
2023/03/22 09:32:19;;;;;;;14.68;4.57;;;;;;;;;;4929956;29;20503;-76
2023/03/22 09:34:45;;;;;;;21.10;5.80;;;;;;;;;;4914322;29;20101;-68
2023/03/22 09:37:11;;;;;;;12.90;5.10;;;;;;;;;;4944242;28;20043;-68
2023/03/22 09:39:39;;;;;;;19.20;5.53;;;;;;;;;;4944253;28;20043;-69
2023/03/22 09:42:07;;;;;;;15.73;5.20;;;;;;;;;;4947038;28;20043;-68
2023/03/22 09:44:38;;;;;;;20.27;6.07;;;;;;;;;;4947292;28;20056;-68
2023/03/22 09:47:06;;;;;;;15.98;5.45;;;;;;;;;;4946131;28;20046;-67
2023/03/22 09:49:35;;;;;;;13.75;5.20;;;;;;;;;;4947717;28;20133;-67
2023/03/22 09:52:02;;;;;;;14.95;5.47;;;;;;;;;;4947952;28;20043;-67
2023/03/22 09:54:33;;;;;;;15.52;5.43;;;;;;;;;;4946051;28;20659;-67
2023/03/22 09:56:59;;;;;;;22.33;5.50;;;;;;;;;;4944017;28;20407;-66
2023/03/22 09:59:32;;;;;;;16.30;5.70;;;;;;;;;;4946316;28;20043;-66
2023/03/22 10:02:00;;;;;;;21.00;5.80;;;;;;;;;;4947662;28;20492;-65
2023/03/22 10:04:42;;;;;;;20.63;6.45;;;;;;;;;;4951348;28;20126;-66
2023/03/22 10:07:16;;;;;;;29.48;5.90;;;;;;;;;;4929721;29;20336;-66
2023/03/22 10:09:53;;;;;;;18.40;5.43;;;;;;;;;;4949726;28;20050;-66
2023/03/22 10:12:27;;;;;;;15.80;5.95;;;;;;;;;;4934193;29;21545;-66
2023/03/22 10:15:05;;;;;;;21.08;5.53;;;;;;;;;;4947543;28;20438;-67
2023/03/22 10:17:31;;;;;;;14.25;5.28;;;;;;;;;;4931743;29;20492;-67
2023/03/22 10:20:00;;;;;;;18.30;5.70;;;;;;;;;;4951651;28;20031;-66
2023/03/22 10:22:30;;;;;;;21.92;5.65;;;;;;;;;;4950299;28;20122;-67
2023/03/22 10:24:56;;;;;;;13.80;5.55;;;;;;;;;;4951025;28;20086;-66
2023/03/22 10:27:23;;;;;;;19.88;6.45;;;;;;;;;;4949656;28;20340;-67
2023/03/22 10:29:55;;;;;;;14.35;5.55;;;;;;;;;;4939242;28;20047;-67
2023/03/22 10:32:26;;;;;;;16.35;5.85;;;;;;;;;;4950064;28;20062;-66
2023/03/22 10:34:53;;;;;;;13.80;5.55;;;;;;;;;;4967053;28;20034;-66
2023/03/22 10:37:21;;;;;;;14.45;5.57;;;;;;;;;;4952823;28;20076;-67
2023/03/22 10:39:50;;;;;;;15.68;5.72;;;;;;;;;;4952472;28;20047;-67
2023/03/22 10:42:18;;;;;;;15.98;6.13;;;;;;;;;;4952208;28;20477;-65
2023/03/22 10:44:48;;;;;;;17.88;6.25;;;;;;;;;;4969170;28;20491;-66
2023/03/22 10:47:17;;;;;;;18.20;6.97;;;;;;;;;;4950439;28;20076;-66
2023/03/22 10:49:48;;;;;;;18.80;5.50;;;;;;;;;;4964221;28;20046;-66
2023/03/22 10:52:32;;;;;;;16.15;5.15;;;;;;;;;;4966412;28;20510;-66
2023/03/22 10:54:59;;;;;;;17.58;5.80;;;;;;;;;;4968569;28;20043;-65
2023/03/22 10:57:25;;;;;;;17.30;6.20;;;;;;;;;;4967008;28;20057;-66
2023/03/22 10:59:54;;;;;;;21.10;6.95;;;;;;;;;;4966781;28;20078;-66
2023/03/22 11:02:23;;;;;;;17.80;6.57;;;;;;;;;;4967250;28;20050;-66
2023/03/22 11:04:51;;;;;;;17.98;6.75;;;;;;;;;;4951141;28;20053;-64
2023/03/22 11:07:27;;;;;;;16.75;6.65;;;;;;;;;;4969673;28;20106;-65
2023/03/22 11:09:58;;;;;;;15.43;6.45;;;;;;;;;;4968622;28;20064;-65
2023/03/22 11:12:24;;;;;;;15.07;6.32;;;;;;;;;;4950753;28;20146;-65
2023/03/22 11:14:51;;;;;;;15.93;5.93;;;;;;;;;;4968095;28;20043;-65
2023/03/22 11:17:22;;;;;;;16.17;6.70;;;;;;;;;;4967532;28;20094;-65
2023/03/22 11:19:58;;;;;;;17.67;6.63;;;;;;;;;;4966819;28;20038;-65
2023/03/22 11:22:27;;;;;;;13.55;5.63;;;;;;;;;;4967118;28;20481;-65
2023/03/22 11:24:55;;;;;;;12.82;5.47;;;;;;;;;;4968359;28;20403;-66
2023/03/22 11:27:25;;;;;;;23.10;6.43;;;;;;;;;;4963462;28;20047;-65
2023/03/22 11:29:57;;;;;;;20.92;6.75;;;;;;;;;;4967267;28;20054;-65
2023/03/22 11:32:29;;;;;;;15.48;6.38;;;;;;;;;;4948557;28;20113;-65
2023/03/22 11:35:14;;;;;;;14.95;5.70;;;;;;;;;;4964489;28;20086;-65
2023/03/22 11:37:42;;;;;;;16.73;5.00;;;;;;;;;;4942647;28;20066;-65
2023/03/22 11:40:14;;;;;;;13.30;5.93;;;;;;;;;;4960095;28;20043;-66
2023/03/22 11:42:40;;;;;;;14.05;5.85;;;;;;;;;;4964774;28;20125;-66
2023/03/22 11:45:07;;;;;;;13.85;5.95;;;;;;;;;;4962083;28;20391;-66
2023/03/22 11:47:36;;;;;;;15.35;6.35;;;;;;;;;;4948205;28;20091;-64
2023/03/22 11:50:05;;;;;;;15.35;6.20;;;;;;;;;;4934298;28;20061;-64
2023/03/22 11:52:31;;;;;;;15.80;5.55;;;;;;;;;;4958767;28;20047;-64
2023/03/22 11:54:58;;;;;;;18.38;6.05;;;;;;;;;;4957528;28;20047;-64
2023/03/22 11:57:26;;;;;;;20.77;6.50;;;;;;;;;;4956979;28;20133;-64
2023/03/22 12:00:13;;;;;;;13.77;4.88;;;;;;;;;;4958117;28;20074;-64
2023/03/22 12:02:45;;;;;;;15.45;6.28;;;;;;;;;;4960564;28;20043;-66
2023/03/22 12:05:14;;;;;;;14.45;6.15;;;;;;;;;;4964735;28;20039;-66
2023/03/22 12:07:41;;;;;;;16.30;6.22;;;;;;;;;;4946272;28;20122;-66
2023/03/22 12:10:17;;;;;;;13.00;6.18;;;;;;;;;;4965238;28;20340;-65
2023/03/22 12:12:46;;;;;;;19.17;6.47;;;;;;;;;;4965010;28;20038;-65
2023/03/22 12:15:17;;;;;;;17.27;6.18;;;;;;;;;;4965412;28;20039;-65
2023/03/22 12:17:47;;;;;;;17.38;6.55;;;;;;;;;;4968674;28;20054;-66
2023/03/22 12:20:19;;;;;;;18.55;7.70;;;;;;;;;;4966914;28;20074;-66
2023/03/22 12:22:50;;;;;;;15.27;6.97;;;;;;;;;;4966169;28;20375;-66
2023/03/22 12:25:17;;;;;;;25.00;8.32;;;;;;;;;;4967433;28;20078;-66
2023/03/22 12:27:45;;;;;;;15.40;8.10;;;;;;;;;;4929027;28;20074;-66
2023/03/22 12:30:13;;;;;;;17.27;7.40;;;;;;;;;;4964631;28;20057;-66
2023/03/22 12:32:43;;;;;;;18.33;7.95;;;;;;;;;;4959914;28;20080;-66
2023/03/22 12:35:17;;;;;;;18.35;8.00;;;;;;;;;;4962342;28;20055;-66
2023/03/22 12:37:45;;;;;;;16.38;8.05;;;;;;;;;;4961720;28;20055;-66
2023/03/22 12:40:19;;;;;;;19.52;8.43;;;;;;;;;;4943539;28;20047;-66
2023/03/22 12:42:51;;;;;;;13.50;8.38;;;;;;;;;;4961319;28;20047;-65
2023/03/22 12:45:20;;;;;;;20.23;9.43;;;;;;;;;;4962859;28;20173;-65
2023/03/22 12:47:48;;;;;;;23.55;9.05;;;;;;;;;;4944593;28;20046;-65
2023/03/22 12:50:17;;;;;;;20.13;8.52;;;;;;;;;;4965783;28;20050;-66
2023/03/22 12:52:49;;;;;;;17.38;8.85;;;;;;;;;;4942367;28;20038;-66
2023/03/22 12:55:19;;;;;;;23.70;9.45;;;;;;;;;;4942077;28;20694;-65
2023/03/22 12:57:50;;;;;;;21.25;9.43;;;;;;;;;;4961158;28;20047;-66
2023/03/22 13:00:16;;;;;;;22.38;9.80;;;;;;;;;;4942755;28;20521;-65
2023/03/22 13:02:48;;;;;;;27.05;9.80;;;;;;;;;;4944164;28;20514;-65
2023/03/22 13:05:17;;;;;;;15.65;9.93;;;;;;;;;;4957954;28;20514;-65
2023/03/22 13:07:46;;;;;;;24.50;10.73;;;;;;;;;;4942929;28;20101;-65
2023/03/22 13:10:31;;;;;;;22.23;10.80;;;;;;;;;;4946956;28;20376;-65
2023/03/22 13:13:11;;;;;;;20.02;11.18;;;;;;;;;;4965486;28;20150;-65
2023/03/22 13:15:38;;;;;;;20.73;10.50;;;;;;;;;;4964470;28;20519;-65
2023/03/22 13:18:04;;;;;;;21.73;10.07;;;;;;;;;;4944995;28;20034;-65
2023/03/22 13:20:32;;;;;;;21.50;10.48;;;;;;;;;;4960751;28;20035;-66
2023/03/22 13:23:00;;;;;;;20.52;11.40;;;;;;;;;;4960500;28;20055;-66
2023/03/22 13:25:27;;;;;;;16.42;10.07;;;;;;;;;;4962127;28;20048;-66
2023/03/22 13:27:56;;;;;;;19.52;11.15;;;;;;;;;;4961142;28;20376;-66
2023/03/22 13:30:25;;;;;;;22.63;12.35;;;;;;;;;;4946554;28;20066;-66
2023/03/22 13:32:53;;;;;;;21.25;10.85;;;;;;;;;;4958795;28;20050;-65
2023/03/22 13:35:23;;;;;;;22.35;10.75;;;;;;;;;;4958494;28;20145;-65
2023/03/22 13:37:49;;;;;;;22.83;11.98;;;;;;;;;;4959274;28;20077;-66
2023/03/22 13:40:34;;;;;;;22.08;12.27;;;;;;;;;;4960116;28;20053;-64
2023/03/22 13:43:21;;;;;;;21.08;12.07;;;;;;;;;;4958650;28;20050;-65
2023/03/22 13:46:03;;;;;;;23.88;13.65;;;;;;;;;;4959810;28;20039;-64
2023/03/22 13:48:31;;;;;;;26.27;12.88;;;;;;;;;;4960503;28;20091;-64
2023/03/22 13:51:07;;;;;;;22.08;11.63;;;;;;;;;;4959817;28;20039;-65
2023/03/22 13:53:35;;;;;;;22.27;11.85;;;;;;;;;;4957840;28;20043;-64
2023/03/22 13:56:04;;;;;;;23.33;12.43;;;;;;;;;;4951795;28;20534;-64
2023/03/22 13:58:36;;;;;;;30.25;12.15;;;;;;;;;;4961053;28;20154;-64
2023/03/22 14:01:03;;;;;;;22.13;10.32;;;;;;;;;;4962078;28;20125;-65
2023/03/22 14:03:33;;;;;;;26.08;12.68;;;;;;;;;;4960942;28;20046;-64
2023/03/22 14:06:19;;;;;;;28.70;11.85;;;;;;;;;;4956846;28;20138;-64
2023/03/22 14:08:47;;;;;;;24.27;11.77;;;;;;;;;;4959257;28;21575;-65
2023/03/22 14:11:13;;;;;;;26.13;12.45;;;;;;;;;;4961526;28;20074;-65
2023/03/22 14:13:42;;;;;;;26.35;11.55;;;;;;;;;;4945243;28;20054;-65
2023/03/22 14:16:12;;;;;;;23.08;12.45;;;;;;;;;;4961568;28;20471;-64
2023/03/22 14:18:41;;;;;;;23.58;12.40;;;;;;;;;;4961184;28;20047;-66
2023/03/22 14:21:11;;;;;;;22.58;12.20;;;;;;;;;;4960817;28;20065;-66
2023/03/22 14:23:39;;;;;;;28.00;12.55;;;;;;;;;;4959146;28;20109;-66
2023/03/22 14:26:08;;;;;;;28.88;12.20;;;;;;;;;;4958411;28;20097;-65
2023/03/22 14:28:35;;;;;;;25.50;13.00;;;;;;;;;;4960107;28;20059;-65
2023/03/22 14:31:02;;;;;;;22.73;12.43;;;;;;;;;;4960884;28;20495;-66
2023/03/22 14:33:29;;;;;;;26.85;13.10;;;;;;;;;;4962498;28;20047;-65
2023/03/22 14:35:58;;;;;;;29.20;14.23;;;;;;;;;;4960928;28;20043;-65